sensor_id;sensor_type;location;lat;lon;timestamp;P1;durP1;ratioP1;P2;durP2;ratioP2
11665;SDS011;5889;51.350;6.708;2023-04-01T00:00:30;5.00;;;1.20;;
11665;SDS011;5889;51.350;6.708;2023-04-01T00:03:00;8.23;;;1.30;;
11665;SDS011;5889;51.350;6.708;2023-04-01T00:05:27;2.60;;;0.90;;
11665;SDS011;5889;51.350;6.708;2023-04-01T00:07:54;5.93;;;1.30;;
11665;SDS011;5889;51.350;6.708;2023-04-01T00:10:21;3.27;;;1.30;;
11665;SDS011;5889;51.350;6.708;2023-04-01T00:12:48;4.67;;;1.20;;
11665;SDS011;5889;51.350;6.708;2023-04-01T00:15:17;6.77;;;1.30;;
11665;SDS011;5889;51.350;6.708;2023-04-01T00:17:44;3.27;;;0.93;;
11665;SDS011;5889;51.350;6.708;2023-04-01T00:20:12;3.83;;;1.30;;
11665;SDS011;5889;51.350;6.708;2023-04-01T00:22:39;3.17;;;1.10;;
11665;SDS011;5889;51.350;6.708;2023-04-01T00:25:06;3.33;;;1.20;;
11665;SDS011;5889;51.350;6.708;2023-04-01T00:27:34;2.93;;;1.43;;
11665;SDS011;5889;51.350;6.708;2023-04-01T00:30:03;5.10;;;1.13;;
11665;SDS011;5889;51.350;6.708;2023-04-01T00:32:33;4.80;;;1.13;;
11665;SDS011;5889;51.350;6.708;2023-04-01T00:35:01;2.80;;;1.10;;
11665;SDS011;5889;51.350;6.708;2023-04-01T00:37:29;3.70;;;1.10;;
11665;SDS011;5889;51.350;6.708;2023-04-01T00:39:56;3.10;;;1.03;;
11665;SDS011;5889;51.350;6.708;2023-04-01T00:42:25;2.33;;;1.20;;
11665;SDS011;5889;51.350;6.708;2023-04-01T00:44:54;4.50;;;1.10;;
11665;SDS011;5889;51.350;6.708;2023-04-01T00:47:24;3.53;;;1.00;;
11665;SDS011;5889;51.350;6.708;2023-04-01T00:49:54;3.27;;;1.17;;
11665;SDS011;5889;51.350;6.708;2023-04-01T00:52:22;4.77;;;1.27;;
11665;SDS011;5889;51.350;6.708;2023-04-01T00:54:53;2.53;;;1.10;;
11665;SDS011;5889;51.350;6.708;2023-04-01T00:57:30;3.13;;;1.10;;
11665;SDS011;5889;51.350;6.708;2023-04-01T01:00:03;5.10;;;1.40;;
11665;SDS011;5889;51.350;6.708;2023-04-01T01:02:32;2.70;;;1.30;;
11665;SDS011;5889;51.350;6.708;2023-04-01T01:05:02;4.33;;;1.13;;
11665;SDS011;5889;51.350;6.708;2023-04-01T01:07:31;2.33;;;1.03;;
11665;SDS011;5889;51.350;6.708;2023-04-01T01:10:07;4.57;;;1.30;;
11665;SDS011;5889;51.350;6.708;2023-04-01T01:12:39;2.97;;;1.27;;
11665;SDS011;5889;51.350;6.708;2023-04-01T01:15:12;2.47;;;1.20;;
11665;SDS011;5889;51.350;6.708;2023-04-01T01:17:48;2.87;;;1.10;;
11665;SDS011;5889;51.350;6.708;2023-04-01T01:24:00;2.10;;;0.93;;
11665;SDS011;5889;51.350;6.708;2023-04-01T01:26:48;4.40;;;1.10;;
11665;SDS011;5889;51.350;6.708;2023-04-01T01:29:40;2.20;;;0.93;;
11665;SDS011;5889;51.350;6.708;2023-04-01T01:35:34;2.07;;;0.70;;
11665;SDS011;5889;51.350;6.708;2023-04-01T01:38:05;2.90;;;0.90;;
11665;SDS011;5889;51.350;6.708;2023-04-01T01:40:35;3.53;;;1.37;;
11665;SDS011;5889;51.350;6.708;2023-04-01T01:43:06;2.70;;;1.07;;
11665;SDS011;5889;51.350;6.708;2023-04-01T01:45:39;2.20;;;0.83;;
11665;SDS011;5889;51.350;6.708;2023-04-01T01:48:10;1.37;;;0.80;;
11665;SDS011;5889;51.350;6.708;2023-04-01T01:50:40;3.70;;;1.00;;
11665;SDS011;5889;51.350;6.708;2023-04-01T01:53:09;2.63;;;0.90;;
11665;SDS011;5889;51.350;6.708;2023-04-01T01:55:39;2.20;;;0.90;;
11665;SDS011;5889;51.350;6.708;2023-04-01T01:58:09;4.27;;;1.00;;
11665;SDS011;5889;51.350;6.708;2023-04-01T02:00:40;1.73;;;0.90;;
11665;SDS011;5889;51.350;6.708;2023-04-01T02:03:10;4.13;;;0.97;;
11665;SDS011;5889;51.350;6.708;2023-04-01T02:05:41;3.70;;;1.00;;
11665;SDS011;5889;51.350;6.708;2023-04-01T02:08:12;4.10;;;1.17;;
11665;SDS011;5889;51.350;6.708;2023-04-01T02:10:43;2.60;;;0.90;;
11665;SDS011;5889;51.350;6.708;2023-04-01T02:13:16;3.90;;;0.93;;
11665;SDS011;5889;51.350;6.708;2023-04-01T02:15:48;2.00;;;0.90;;
11665;SDS011;5889;51.350;6.708;2023-04-01T02:18:20;2.50;;;1.20;;
11665;SDS011;5889;51.350;6.708;2023-04-01T02:20:50;2.57;;;0.80;;
11665;SDS011;5889;51.350;6.708;2023-04-01T02:23:18;1.87;;;0.90;;
11665;SDS011;5889;51.350;6.708;2023-04-01T02:25:49;2.40;;;1.00;;
11665;SDS011;5889;51.350;6.708;2023-04-01T02:28:16;1.27;;;1.03;;
11665;SDS011;5889;51.350;6.708;2023-04-01T02:30:45;2.87;;;1.10;;
11665;SDS011;5889;51.350;6.708;2023-04-01T02:33:14;2.47;;;1.00;;
11665;SDS011;5889;51.350;6.708;2023-04-01T02:35:42;5.13;;;1.10;;
11665;SDS011;5889;51.350;6.708;2023-04-01T02:38:11;3.00;;;1.30;;
11665;SDS011;5889;51.350;6.708;2023-04-01T02:40:41;2.93;;;1.13;;
11665;SDS011;5889;51.350;6.708;2023-04-01T02:43:10;3.43;;;1.60;;
11665;SDS011;5889;51.350;6.708;2023-04-01T02:45:37;3.83;;;1.20;;
11665;SDS011;5889;51.350;6.708;2023-04-01T02:48:04;3.13;;;1.30;;
11665;SDS011;5889;51.350;6.708;2023-04-01T02:50:32;2.73;;;1.10;;
11665;SDS011;5889;51.350;6.708;2023-04-01T02:52:59;2.50;;;1.20;;
11665;SDS011;5889;51.350;6.708;2023-04-01T02:55:29;1.83;;;1.30;;
11665;SDS011;5889;51.350;6.708;2023-04-01T02:57:56;1.63;;;1.20;;
11665;SDS011;5889;51.350;6.708;2023-04-01T03:00:23;3.83;;;2.23;;
11665;SDS011;5889;51.350;6.708;2023-04-01T03:02:50;2.77;;;1.60;;
11665;SDS011;5889;51.350;6.708;2023-04-01T03:05:17;4.30;;;1.57;;
11665;SDS011;5889;51.350;6.708;2023-04-01T03:07:45;2.67;;;1.20;;
11665;SDS011;5889;51.350;6.708;2023-04-01T03:10:12;2.83;;;1.20;;
11665;SDS011;5889;51.350;6.708;2023-04-01T03:12:40;2.70;;;1.20;;
11665;SDS011;5889;51.350;6.708;2023-04-01T03:15:08;2.03;;;1.07;;
11665;SDS011;5889;51.350;6.708;2023-04-01T03:17:36;2.40;;;1.30;;
11665;SDS011;5889;51.350;6.708;2023-04-01T03:20:04;2.10;;;1.03;;
11665;SDS011;5889;51.350;6.708;2023-04-01T03:22:32;2.47;;;1.33;;
11665;SDS011;5889;51.350;6.708;2023-04-01T03:25:00;1.73;;;1.20;;
11665;SDS011;5889;51.350;6.708;2023-04-01T03:27:27;2.60;;;1.20;;
11665;SDS011;5889;51.350;6.708;2023-04-01T03:29:55;2.30;;;1.10;;
11665;SDS011;5889;51.350;6.708;2023-04-01T03:32:22;1.23;;;1.10;;
11665;SDS011;5889;51.350;6.708;2023-04-01T03:34:49;2.07;;;1.10;;
11665;SDS011;5889;51.350;6.708;2023-04-01T03:37:16;1.20;;;1.10;;
11665;SDS011;5889;51.350;6.708;2023-04-01T03:39:43;1.50;;;1.23;;
11665;SDS011;5889;51.350;6.708;2023-04-01T03:42:10;2.83;;;1.27;;
11665;SDS011;5889;51.350;6.708;2023-04-01T03:44:37;3.23;;;1.27;;
11665;SDS011;5889;51.350;6.708;2023-04-01T03:47:05;1.87;;;1.17;;
11665;SDS011;5889;51.350;6.708;2023-04-01T03:49:34;1.90;;;1.20;;
11665;SDS011;5889;51.350;6.708;2023-04-01T03:52:01;1.60;;;1.10;;
11665;SDS011;5889;51.350;6.708;2023-04-01T03:54:28;3.30;;;1.20;;
11665;SDS011;5889;51.350;6.708;2023-04-01T03:56:55;2.30;;;1.00;;
11665;SDS011;5889;51.350;6.708;2023-04-01T03:59:23;3.70;;;1.00;;
11665;SDS011;5889;51.350;6.708;2023-04-01T04:01:49;3.00;;;1.20;;
11665;SDS011;5889;51.350;6.708;2023-04-01T04:04:18;2.70;;;1.40;;
11665;SDS011;5889;51.350;6.708;2023-04-01T04:06:45;5.03;;;1.37;;
11665;SDS011;5889;51.350;6.708;2023-04-01T04:09:13;1.40;;;1.30;;
11665;SDS011;5889;51.350;6.708;2023-04-01T04:11:40;2.90;;;1.20;;
11665;SDS011;5889;51.350;6.708;2023-04-01T04:14:06;2.00;;;1.20;;
11665;SDS011;5889;51.350;6.708;2023-04-01T04:16:35;2.67;;;1.10;;
11665;SDS011;5889;51.350;6.708;2023-04-01T04:19:02;3.03;;;1.20;;
11665;SDS011;5889;51.350;6.708;2023-04-01T04:21:31;3.90;;;1.30;;
11665;SDS011;5889;51.350;6.708;2023-04-01T04:23:58;2.27;;;1.37;;
11665;SDS011;5889;51.350;6.708;2023-04-01T04:26:26;3.17;;;1.23;;
11665;SDS011;5889;51.350;6.708;2023-04-01T04:28:53;1.43;;;1.17;;
11665;SDS011;5889;51.350;6.708;2023-04-01T04:31:21;2.07;;;1.10;;
11665;SDS011;5889;51.350;6.708;2023-04-01T04:33:49;2.13;;;1.00;;
11665;SDS011;5889;51.350;6.708;2023-04-01T04:36:16;1.80;;;1.10;;
11665;SDS011;5889;51.350;6.708;2023-04-01T04:38:45;2.63;;;1.40;;
11665;SDS011;5889;51.350;6.708;2023-04-01T04:41:12;2.17;;;1.30;;
11665;SDS011;5889;51.350;6.708;2023-04-01T04:43:40;3.10;;;1.50;;
11665;SDS011;5889;51.350;6.708;2023-04-01T04:46:08;4.07;;;1.53;;
11665;SDS011;5889;51.350;6.708;2023-04-01T04:48:35;1.83;;;1.60;;
11665;SDS011;5889;51.350;6.708;2023-04-01T04:51:03;4.13;;;1.63;;
11665;SDS011;5889;51.350;6.708;2023-04-01T04:53:29;1.53;;;1.40;;
11665;SDS011;5889;51.350;6.708;2023-04-01T04:55:58;1.53;;;1.40;;
11665;SDS011;5889;51.350;6.708;2023-04-01T04:58:25;2.90;;;1.50;;
11665;SDS011;5889;51.350;6.708;2023-04-01T05:00:52;4.27;;;1.60;;
11665;SDS011;5889;51.350;6.708;2023-04-01T05:03:19;2.63;;;1.50;;
11665;SDS011;5889;51.350;6.708;2023-04-01T05:05:49;1.90;;;1.60;;
11665;SDS011;5889;51.350;6.708;2023-04-01T05:08:17;3.43;;;1.73;;
11665;SDS011;5889;51.350;6.708;2023-04-01T05:10:44;3.30;;;1.70;;
11665;SDS011;5889;51.350;6.708;2023-04-01T05:13:13;1.93;;;1.57;;
11665;SDS011;5889;51.350;6.708;2023-04-01T05:15:40;2.47;;;1.80;;
11665;SDS011;5889;51.350;6.708;2023-04-01T05:18:07;2.17;;;1.60;;
11665;SDS011;5889;51.350;6.708;2023-04-01T05:20:34;2.30;;;1.70;;
11665;SDS011;5889;51.350;6.708;2023-04-01T05:23:01;2.57;;;1.70;;
11665;SDS011;5889;51.350;6.708;2023-04-01T05:25:28;2.20;;;1.97;;
11665;SDS011;5889;51.350;6.708;2023-04-01T05:27:55;2.67;;;1.87;;
11665;SDS011;5889;51.350;6.708;2023-04-01T05:30:24;3.77;;;2.00;;
11665;SDS011;5889;51.350;6.708;2023-04-01T05:32:51;4.43;;;2.33;;
11665;SDS011;5889;51.350;6.708;2023-04-01T05:35:18;2.80;;;2.33;;
11665;SDS011;5889;51.350;6.708;2023-04-01T05:37:45;2.40;;;2.20;;
11665;SDS011;5889;51.350;6.708;2023-04-01T05:40:12;3.30;;;2.40;;
11665;SDS011;5889;51.350;6.708;2023-04-01T05:42:39;6.30;;;2.40;;
11665;SDS011;5889;51.350;6.708;2023-04-01T05:48:41;4.30;;;2.83;;
11665;SDS011;5889;51.350;6.708;2023-04-01T05:51:13;3.07;;;2.50;;
11665;SDS011;5889;51.350;6.708;2023-04-01T05:53:49;3.77;;;2.43;;
11665;SDS011;5889;51.350;6.708;2023-04-01T05:56:16;3.67;;;2.60;;
11665;SDS011;5889;51.350;6.708;2023-04-01T05:58:43;2.90;;;2.47;;
11665;SDS011;5889;51.350;6.708;2023-04-01T06:01:12;4.30;;;3.57;;
11665;SDS011;5889;51.350;6.708;2023-04-01T06:03:41;4.53;;;3.37;;
11665;SDS011;5889;51.350;6.708;2023-04-01T06:06:10;4.03;;;2.97;;
11665;SDS011;5889;51.350;6.708;2023-04-01T06:08:40;4.33;;;2.80;;
11665;SDS011;5889;51.350;6.708;2023-04-01T06:11:12;3.57;;;2.80;;
11665;SDS011;5889;51.350;6.708;2023-04-01T06:13:50;3.90;;;3.00;;
11665;SDS011;5889;51.350;6.708;2023-04-01T06:16:39;5.63;;;3.57;;
11665;SDS011;5889;51.350;6.708;2023-04-01T06:19:17;8.67;;;4.77;;
11665;SDS011;5889;51.350;6.708;2023-04-01T06:22:06;5.23;;;4.23;;
11665;SDS011;5889;51.350;6.708;2023-04-01T06:24:50;5.03;;;3.57;;
11665;SDS011;5889;51.350;6.708;2023-04-01T06:27:40;5.57;;;4.00;;
11665;SDS011;5889;51.350;6.708;2023-04-01T06:30:24;6.03;;;4.13;;
11665;SDS011;5889;51.350;6.708;2023-04-01T06:33:07;4.83;;;4.00;;
11665;SDS011;5889;51.350;6.708;2023-04-01T06:36:04;4.60;;;3.67;;
11665;SDS011;5889;51.350;6.708;2023-04-01T06:41:50;6.07;;;4.67;;
11665;SDS011;5889;51.350;6.708;2023-04-01T06:44:41;6.73;;;5.10;;
11665;SDS011;5889;51.350;6.708;2023-04-01T06:47:22;5.50;;;3.90;;
11665;SDS011;5889;51.350;6.708;2023-04-01T06:50:00;5.57;;;4.00;;
11665;SDS011;5889;51.350;6.708;2023-04-01T06:52:38;8.07;;;5.70;;
11665;SDS011;5889;51.350;6.708;2023-04-01T06:55:20;8.63;;;5.50;;
11665;SDS011;5889;51.350;6.708;2023-04-01T06:57:54;8.03;;;5.57;;
11665;SDS011;5889;51.350;6.708;2023-04-01T07:00:25;7.87;;;7.00;;
11665;SDS011;5889;51.350;6.708;2023-04-01T07:02:58;7.67;;;5.67;;
11665;SDS011;5889;51.350;6.708;2023-04-01T07:05:32;9.00;;;5.40;;
11665;SDS011;5889;51.350;6.708;2023-04-01T07:08:03;9.27;;;5.83;;
11665;SDS011;5889;51.350;6.708;2023-04-01T07:10:35;6.00;;;4.43;;
11665;SDS011;5889;51.350;6.708;2023-04-01T07:13:12;5.03;;;4.10;;
11665;SDS011;5889;51.350;6.708;2023-04-01T07:15:46;4.83;;;4.33;;
11665;SDS011;5889;51.350;6.708;2023-04-01T07:18:22;5.83;;;4.30;;
11665;SDS011;5889;51.350;6.708;2023-04-01T07:20:56;5.73;;;4.80;;
11665;SDS011;5889;51.350;6.708;2023-04-01T07:23:26;5.10;;;4.60;;
11665;SDS011;5889;51.350;6.708;2023-04-01T07:26:00;5.30;;;4.17;;
11665;SDS011;5889;51.350;6.708;2023-04-01T07:28:32;4.80;;;4.27;;
11665;SDS011;5889;51.350;6.708;2023-04-01T07:31:02;3.97;;;3.60;;
11665;SDS011;5889;51.350;6.708;2023-04-01T07:33:39;5.50;;;5.00;;
11665;SDS011;5889;51.350;6.708;2023-04-01T07:36:13;4.63;;;4.23;;
11665;SDS011;5889;51.350;6.708;2023-04-01T07:38:50;4.60;;;4.10;;
11665;SDS011;5889;51.350;6.708;2023-04-01T07:41:29;6.13;;;3.90;;
11665;SDS011;5889;51.350;6.708;2023-04-01T07:44:06;4.77;;;4.20;;
11665;SDS011;5889;51.350;6.708;2023-04-01T07:46:46;4.60;;;4.10;;
11665;SDS011;5889;51.350;6.708;2023-04-01T07:49:24;7.40;;;4.30;;
11665;SDS011;5889;51.350;6.708;2023-04-01T07:51:58;5.93;;;4.90;;
11665;SDS011;5889;51.350;6.708;2023-04-01T07:54:34;6.07;;;5.00;;
11665;SDS011;5889;51.350;6.708;2023-04-01T07:57:08;6.47;;;5.43;;
11665;SDS011;5889;51.350;6.708;2023-04-01T07:59:45;6.93;;;5.70;;
11665;SDS011;5889;51.350;6.708;2023-04-01T08:02:21;6.23;;;5.40;;
11665;SDS011;5889;51.350;6.708;2023-04-01T08:05:04;6.23;;;5.63;;
11665;SDS011;5889;51.350;6.708;2023-04-01T08:07:44;7.37;;;5.37;;
11665;SDS011;5889;51.350;6.708;2023-04-01T08:10:18;6.87;;;5.37;;
11665;SDS011;5889;51.350;6.708;2023-04-01T08:12:53;5.93;;;5.30;;
11665;SDS011;5889;51.350;6.708;2023-04-01T08:15:34;5.20;;;4.70;;
11665;SDS011;5889;51.350;6.708;2023-04-01T08:18:13;5.60;;;4.50;;
11665;SDS011;5889;51.350;6.708;2023-04-01T08:20:47;5.57;;;4.80;;
11665;SDS011;5889;51.350;6.708;2023-04-01T08:23:19;5.33;;;4.63;;
11665;SDS011;5889;51.350;6.708;2023-04-01T08:25:51;4.97;;;4.47;;
11665;SDS011;5889;51.350;6.708;2023-04-01T08:28:24;5.43;;;4.60;;
11665;SDS011;5889;51.350;6.708;2023-04-01T08:30:58;4.97;;;4.47;;
11665;SDS011;5889;51.350;6.708;2023-04-01T08:33:32;6.43;;;4.97;;
11665;SDS011;5889;51.350;6.708;2023-04-01T08:36:02;5.53;;;5.03;;
11665;SDS011;5889;51.350;6.708;2023-04-01T08:38:37;7.27;;;5.60;;
11665;SDS011;5889;51.350;6.708;2023-04-01T08:41:16;7.03;;;5.63;;
11665;SDS011;5889;51.350;6.708;2023-04-01T08:44:12;7.90;;;5.80;;
11665;SDS011;5889;51.350;6.708;2023-04-01T08:47:05;9.80;;;6.77;;
11665;SDS011;5889;51.350;6.708;2023-04-01T08:49:56;9.07;;;7.07;;
11665;SDS011;5889;51.350;6.708;2023-04-01T08:52:37;8.37;;;6.10;;
11665;SDS011;5889;51.350;6.708;2023-04-01T08:55:19;8.83;;;6.67;;
11665;SDS011;5889;51.350;6.708;2023-04-01T08:58:06;9.13;;;6.53;;
11665;SDS011;5889;51.350;6.708;2023-04-01T09:00:47;9.23;;;6.77;;
11665;SDS011;5889;51.350;6.708;2023-04-01T09:03:33;10.30;;;8.07;;
11665;SDS011;5889;51.350;6.708;2023-04-01T09:12:25;9.57;;;7.63;;
11665;SDS011;5889;51.350;6.708;2023-04-01T09:15:28;10.07;;;8.07;;
11665;SDS011;5889;51.350;6.708;2023-04-01T09:21:17;12.07;;;8.87;;
11665;SDS011;5889;51.350;6.708;2023-04-01T09:26:57;11.77;;;8.80;;
11665;SDS011;5889;51.350;6.708;2023-04-01T09:32:52;10.00;;;7.60;;
11665;SDS011;5889;51.350;6.708;2023-04-01T09:35:39;10.80;;;8.43;;
11665;SDS011;5889;51.350;6.708;2023-04-01T09:38:19;9.60;;;7.93;;
11665;SDS011;5889;51.350;6.708;2023-04-01T09:40:49;11.70;;;9.17;;
11665;SDS011;5889;51.350;6.708;2023-04-01T09:43:34;13.43;;;9.13;;
11665;SDS011;5889;51.350;6.708;2023-04-01T09:46:19;12.37;;;8.67;;
11665;SDS011;5889;51.350;6.708;2023-04-01T09:48:59;13.43;;;9.63;;
11665;SDS011;5889;51.350;6.708;2023-04-01T09:51:58;13.67;;;9.97;;
11665;SDS011;5889;51.350;6.708;2023-04-01T09:54:39;13.90;;;9.87;;
11665;SDS011;5889;51.350;6.708;2023-04-01T09:57:28;16.17;;;10.80;;
11665;SDS011;5889;51.350;6.708;2023-04-01T10:00:30;15.57;;;10.93;;
11665;SDS011;5889;51.350;6.708;2023-04-01T10:06:56;16.20;;;11.70;;
11665;SDS011;5889;51.350;6.708;2023-04-01T10:13:14;15.97;;;10.50;;
11665;SDS011;5889;51.350;6.708;2023-04-01T10:16:20;17.23;;;10.53;;
11665;SDS011;5889;51.350;6.708;2023-04-01T10:19:10;16.07;;;11.27;;
11665;SDS011;5889;51.350;6.708;2023-04-01T10:22:06;15.53;;;10.20;;
11665;SDS011;5889;51.350;6.708;2023-04-01T10:28:14;16.83;;;9.93;;
11665;SDS011;5889;51.350;6.708;2023-04-01T10:31:14;15.60;;;10.83;;
11665;SDS011;5889;51.350;6.708;2023-04-01T10:34:08;18.40;;;10.70;;
11665;SDS011;5889;51.350;6.708;2023-04-01T10:37:00;15.50;;;10.33;;
11665;SDS011;5889;51.350;6.708;2023-04-01T10:42:43;14.87;;;10.40;;
11665;SDS011;5889;51.350;6.708;2023-04-01T10:45:57;15.33;;;9.30;;
11665;SDS011;5889;51.350;6.708;2023-04-01T10:49:28;13.47;;;9.80;;
11665;SDS011;5889;51.350;6.708;2023-04-01T10:52:22;12.97;;;9.90;;
11665;SDS011;5889;51.350;6.708;2023-04-01T10:55:10;14.17;;;9.40;;
11665;SDS011;5889;51.350;6.708;2023-04-01T10:58:02;10.53;;;9.30;;
11665;SDS011;5889;51.350;6.708;2023-04-01T11:10:20;14.53;;;9.47;;
11665;SDS011;5889;51.350;6.708;2023-04-01T11:16:32;10.57;;;9.00;;
11665;SDS011;5889;51.350;6.708;2023-04-01T11:19:35;13.47;;;9.07;;
11665;SDS011;5889;51.350;6.708;2023-04-01T11:22:29;10.73;;;8.90;;
11665;SDS011;5889;51.350;6.708;2023-04-01T11:25:34;10.90;;;9.30;;
11665;SDS011;5889;51.350;6.708;2023-04-01T11:28:19;11.37;;;9.30;;
11665;SDS011;5889;51.350;6.708;2023-04-01T11:31:04;10.83;;;8.97;;
11665;SDS011;5889;51.350;6.708;2023-04-01T11:33:49;11.43;;;9.30;;
11665;SDS011;5889;51.350;6.708;2023-04-01T11:36:25;14.67;;;9.20;;
11665;SDS011;5889;51.350;6.708;2023-04-01T11:39:04;11.67;;;8.50;;
11665;SDS011;5889;51.350;6.708;2023-04-01T11:41:43;9.53;;;7.13;;
11665;SDS011;5889;51.350;6.708;2023-04-01T11:44:16;9.53;;;6.80;;
11665;SDS011;5889;51.350;6.708;2023-04-01T11:50:00;11.73;;;7.30;;
11665;SDS011;5889;51.350;6.708;2023-04-01T11:55:45;11.20;;;7.90;;
11665;SDS011;5889;51.350;6.708;2023-04-01T12:06:11;9.93;;;6.63;;
11665;SDS011;5889;51.350;6.708;2023-04-01T12:08:46;8.17;;;6.83;;
11665;SDS011;5889;51.350;6.708;2023-04-01T12:11:26;9.57;;;7.43;;
11665;SDS011;5889;51.350;6.708;2023-04-01T12:14:23;9.40;;;7.67;;
11665;SDS011;5889;51.350;6.708;2023-04-01T12:17:16;11.30;;;7.93;;
11665;SDS011;5889;51.350;6.708;2023-04-01T12:20:04;9.57;;;8.30;;
11665;SDS011;5889;51.350;6.708;2023-04-01T12:26:28;11.87;;;8.60;;
11665;SDS011;5889;51.350;6.708;2023-04-01T12:29:36;11.10;;;8.80;;
11665;SDS011;5889;51.350;6.708;2023-04-01T12:32:28;19.27;;;11.93;;
11665;SDS011;5889;51.350;6.708;2023-04-01T12:35:13;14.33;;;10.03;;
11665;SDS011;5889;51.350;6.708;2023-04-01T12:38:00;13.27;;;9.37;;
11665;SDS011;5889;51.350;6.708;2023-04-01T12:41:03;11.10;;;8.37;;
11665;SDS011;5889;51.350;6.708;2023-04-01T12:44:14;14.93;;;9.90;;
11665;SDS011;5889;51.350;6.708;2023-04-01T12:47:13;10.73;;;8.60;;
11665;SDS011;5889;51.350;6.708;2023-04-01T12:49:59;15.00;;;9.53;;
11665;SDS011;5889;51.350;6.708;2023-04-01T12:52:50;10.80;;;8.33;;
11665;SDS011;5889;51.350;6.708;2023-04-01T12:58:25;12.07;;;9.50;;
11665;SDS011;5889;51.350;6.708;2023-04-01T13:01:26;13.33;;;8.97;;
11665;SDS011;5889;51.350;6.708;2023-04-01T13:04:12;10.83;;;7.80;;
11665;SDS011;5889;51.350;6.708;2023-04-01T13:07:17;12.43;;;8.50;;
11665;SDS011;5889;51.350;6.708;2023-04-01T13:10:01;11.40;;;8.57;;
11665;SDS011;5889;51.350;6.708;2023-04-01T13:12:40;13.63;;;8.03;;
11665;SDS011;5889;51.350;6.708;2023-04-01T13:15:24;9.57;;;7.20;;
11665;SDS011;5889;51.350;6.708;2023-04-01T13:18:01;10.00;;;7.47;;
11665;SDS011;5889;51.350;6.708;2023-04-01T13:20:41;9.57;;;7.53;;
11665;SDS011;5889;51.350;6.708;2023-04-01T13:26:09;8.30;;;6.80;;
11665;SDS011;5889;51.350;6.708;2023-04-01T13:28:43;10.60;;;7.40;;
11665;SDS011;5889;51.350;6.708;2023-04-01T13:31:22;10.50;;;7.30;;
11665;SDS011;5889;51.350;6.708;2023-04-01T13:34:08;9.10;;;6.60;;
11665;SDS011;5889;51.350;6.708;2023-04-01T13:36:47;9.70;;;6.70;;
11665;SDS011;5889;51.350;6.708;2023-04-01T13:39:35;9.30;;;7.00;;
11665;SDS011;5889;51.350;6.708;2023-04-01T13:42:13;8.33;;;6.43;;
11665;SDS011;5889;51.350;6.708;2023-04-01T13:44:45;10.63;;;6.83;;
11665;SDS011;5889;51.350;6.708;2023-04-01T13:50:56;9.53;;;6.93;;
11665;SDS011;5889;51.350;6.708;2023-04-01T13:53:56;8.47;;;6.57;;
11665;SDS011;5889;51.350;6.708;2023-04-01T13:56:57;8.63;;;6.50;;
11665;SDS011;5889;51.350;6.708;2023-04-01T14:05:54;7.70;;;6.17;;
11665;SDS011;5889;51.350;6.708;2023-04-01T14:08:35;6.77;;;6.03;;
11665;SDS011;5889;51.350;6.708;2023-04-01T14:11:15;7.87;;;6.00;;
11665;SDS011;5889;51.350;6.708;2023-04-01T14:13:50;6.97;;;5.80;;
11665;SDS011;5889;51.350;6.708;2023-04-01T14:16:29;8.17;;;6.40;;
11665;SDS011;5889;51.350;6.708;2023-04-01T14:19:11;6.90;;;5.80;;
11665;SDS011;5889;51.350;6.708;2023-04-01T14:21:55;10.63;;;6.63;;
11665;SDS011;5889;51.350;6.708;2023-04-01T14:27:30;7.43;;;6.17;;
11665;SDS011;5889;51.350;6.708;2023-04-01T14:30:09;8.87;;;5.60;;
11665;SDS011;5889;51.350;6.708;2023-04-01T14:32:56;7.17;;;5.00;;
11665;SDS011;5889;51.350;6.708;2023-04-01T14:35:33;6.83;;;5.37;;
11665;SDS011;5889;51.350;6.708;2023-04-01T14:38:25;8.07;;;5.83;;
11665;SDS011;5889;51.350;6.708;2023-04-01T14:40:59;7.03;;;5.33;;
11665;SDS011;5889;51.350;6.708;2023-04-01T14:43:47;6.67;;;5.77;;
11665;SDS011;5889;51.350;6.708;2023-04-01T14:49:30;5.87;;;5.17;;
11665;SDS011;5889;51.350;6.708;2023-04-01T14:52:04;6.40;;;5.17;;
11665;SDS011;5889;51.350;6.708;2023-04-01T14:54:37;6.07;;;5.00;;
11665;SDS011;5889;51.350;6.708;2023-04-01T14:57:09;6.87;;;5.17;;
11665;SDS011;5889;51.350;6.708;2023-04-01T14:59:39;7.67;;;5.17;;
11665;SDS011;5889;51.350;6.708;2023-04-01T15:02:11;5.40;;;4.77;;
11665;SDS011;5889;51.350;6.708;2023-04-01T15:04:54;5.43;;;4.63;;
11665;SDS011;5889;51.350;6.708;2023-04-01T15:10:38;5.53;;;4.63;;
11665;SDS011;5889;51.350;6.708;2023-04-01T15:13:24;5.20;;;4.70;;
11665;SDS011;5889;51.350;6.708;2023-04-01T15:16:11;6.90;;;4.97;;
11665;SDS011;5889;51.350;6.708;2023-04-01T15:18:49;7.67;;;5.23;;
11665;SDS011;5889;51.350;6.708;2023-04-01T15:21:37;6.43;;;5.33;;
11665;SDS011;5889;51.350;6.708;2023-04-01T15:24:21;7.03;;;5.00;;
11665;SDS011;5889;51.350;6.708;2023-04-01T15:26:58;7.10;;;5.17;;
11665;SDS011;5889;51.350;6.708;2023-04-01T15:29:38;6.23;;;5.20;;
11665;SDS011;5889;51.350;6.708;2023-04-01T15:32:24;5.80;;;4.83;;
11665;SDS011;5889;51.350;6.708;2023-04-01T15:34:57;6.67;;;5.07;;
11665;SDS011;5889;51.350;6.708;2023-04-01T15:37:32;5.97;;;4.87;;
11665;SDS011;5889;51.350;6.708;2023-04-01T15:40:14;9.13;;;5.63;;
11665;SDS011;5889;51.350;6.708;2023-04-01T15:42:51;6.37;;;5.30;;
11665;SDS011;5889;51.350;6.708;2023-04-01T15:45:35;7.13;;;4.33;;
11665;SDS011;5889;51.350;6.708;2023-04-01T15:48:13;5.07;;;4.47;;
11665;SDS011;5889;51.350;6.708;2023-04-01T15:54:21;5.97;;;4.10;;
11665;SDS011;5889;51.350;6.708;2023-04-01T15:57:06;5.20;;;4.17;;
11665;SDS011;5889;51.350;6.708;2023-04-01T15:59:50;6.73;;;4.43;;
11665;SDS011;5889;51.350;6.708;2023-04-01T16:02:29;5.27;;;4.67;;
11665;SDS011;5889;51.350;6.708;2023-04-01T16:05:07;6.53;;;4.50;;
11665;SDS011;5889;51.350;6.708;2023-04-01T16:07:53;5.57;;;4.50;;
11665;SDS011;5889;51.350;6.708;2023-04-01T16:10:31;5.73;;;4.07;;
11665;SDS011;5889;51.350;6.708;2023-04-01T16:13:17;5.97;;;4.47;;
11665;SDS011;5889;51.350;6.708;2023-04-01T16:15:53;5.90;;;4.67;;
11665;SDS011;5889;51.350;6.708;2023-04-01T16:21:33;4.60;;;4.03;;
11665;SDS011;5889;51.350;6.708;2023-04-01T16:24:04;4.90;;;4.40;;
11665;SDS011;5889;51.350;6.708;2023-04-01T16:26:43;6.33;;;5.07;;
11665;SDS011;5889;51.350;6.708;2023-04-01T16:29:19;4.90;;;4.40;;
11665;SDS011;5889;51.350;6.708;2023-04-01T16:31:55;6.87;;;4.73;;
11665;SDS011;5889;51.350;6.708;2023-04-01T16:34:34;4.50;;;4.10;;
11665;SDS011;5889;51.350;6.708;2023-04-01T16:37:07;4.70;;;4.10;;
11665;SDS011;5889;51.350;6.708;2023-04-01T16:39:42;4.70;;;4.20;;
11665;SDS011;5889;51.350;6.708;2023-04-01T16:42:26;4.80;;;4.30;;
11665;SDS011;5889;51.350;6.708;2023-04-01T16:45:06;6.13;;;4.63;;
11665;SDS011;5889;51.350;6.708;2023-04-01T16:47:47;6.37;;;4.93;;
11665;SDS011;5889;51.350;6.708;2023-04-01T16:50:18;5.40;;;4.87;;
11665;SDS011;5889;51.350;6.708;2023-04-01T16:52:53;7.10;;;5.43;;
11665;SDS011;5889;51.350;6.708;2023-04-01T16:55:41;6.00;;;5.03;;
11665;SDS011;5889;51.350;6.708;2023-04-01T16:58:14;6.93;;;5.17;;
11665;SDS011;5889;51.350;6.708;2023-04-01T17:00:51;6.10;;;5.30;;
11665;SDS011;5889;51.350;6.708;2023-04-01T17:03:27;6.30;;;5.37;;
11665;SDS011;5889;51.350;6.708;2023-04-01T17:06:02;8.03;;;5.47;;
11665;SDS011;5889;51.350;6.708;2023-04-01T17:08:41;6.10;;;5.47;;
11665;SDS011;5889;51.350;6.708;2023-04-01T17:11:23;6.77;;;5.40;;
11665;SDS011;5889;51.350;6.708;2023-04-01T17:13:56;5.77;;;5.17;;
11665;SDS011;5889;51.350;6.708;2023-04-01T17:16:46;7.67;;;6.03;;
11665;SDS011;5889;51.350;6.708;2023-04-01T17:19:45;8.47;;;5.93;;
11665;SDS011;5889;51.350;6.708;2023-04-01T17:22:25;7.00;;;5.93;;
11665;SDS011;5889;51.350;6.708;2023-04-01T17:25:01;7.80;;;6.40;;
11665;SDS011;5889;51.350;6.708;2023-04-01T17:27:46;9.70;;;6.77;;
11665;SDS011;5889;51.350;6.708;2023-04-01T17:30:21;8.37;;;6.60;;
11665;SDS011;5889;51.350;6.708;2023-04-01T17:33:15;9.57;;;7.50;;
11665;SDS011;5889;51.350;6.708;2023-04-01T17:35:56;9.70;;;6.93;;
11665;SDS011;5889;51.350;6.708;2023-04-01T17:38:40;10.80;;;7.93;;
11665;SDS011;5889;51.350;6.708;2023-04-01T17:41:36;9.80;;;8.17;;